sensor_id;sensor_type;location;lat;lon;timestamp;P1;durP1;ratioP1;P2;durP2;ratioP2
5209;SDS011;2624;48.048;11.706;2023-03-01T00:02:01;11.33;;;5.33;;
5209;SDS011;2624;48.048;11.706;2023-03-01T00:07:05;14.60;;;5.50;;
5209;SDS011;2624;48.048;11.706;2023-03-01T00:12:07;10.27;;;6.70;;
5209;SDS011;2624;48.048;11.706;2023-03-01T00:17:09;17.23;;;7.37;;
5209;SDS011;2624;48.048;11.706;2023-03-01T00:22:12;8.63;;;5.00;;
5209;SDS011;2624;48.048;11.706;2023-03-01T00:27:14;11.47;;;5.47;;
5209;SDS011;2624;48.048;11.706;2023-03-01T00:32:16;12.07;;;6.70;;
5209;SDS011;2624;48.048;11.706;2023-03-01T00:37:19;8.93;;;5.90;;
5209;SDS011;2624;48.048;11.706;2023-03-01T00:42:21;12.77;;;5.90;;
5209;SDS011;2624;48.048;11.706;2023-03-01T00:47:23;13.63;;;7.30;;
5209;SDS011;2624;48.048;11.706;2023-03-01T00:52:26;15.23;;;7.47;;
5209;SDS011;2624;48.048;11.706;2023-03-01T00:57:28;14.37;;;7.33;;
5209;SDS011;2624;48.048;11.706;2023-03-01T01:02:31;16.33;;;6.83;;
5209;SDS011;2624;48.048;11.706;2023-03-01T01:07:34;7.23;;;3.57;;
5209;SDS011;2624;48.048;11.706;2023-03-01T01:12:36;15.17;;;7.60;;
5209;SDS011;2624;48.048;11.706;2023-03-01T01:17:38;11.67;;;6.00;;
5209;SDS011;2624;48.048;11.706;2023-03-01T01:22:41;11.30;;;6.23;;
5209;SDS011;2624;48.048;11.706;2023-03-01T01:27:43;11.60;;;5.77;;
5209;SDS011;2624;48.048;11.706;2023-03-01T01:32:45;9.33;;;5.23;;
5209;SDS011;2624;48.048;11.706;2023-03-01T01:37:48;15.30;;;7.63;;
5209;SDS011;2624;48.048;11.706;2023-03-01T01:42:50;14.07;;;7.37;;
5209;SDS011;2624;48.048;11.706;2023-03-01T01:47:51;11.27;;;6.97;;
5209;SDS011;2624;48.048;11.706;2023-03-01T01:52:56;12.53;;;6.80;;
5209;SDS011;2624;48.048;11.706;2023-03-01T01:58:01;13.43;;;5.80;;
5209;SDS011;2624;48.048;11.706;2023-03-01T02:03:07;13.80;;;6.93;;
5209;SDS011;2624;48.048;11.706;2023-03-01T02:08:12;14.77;;;7.50;;
5209;SDS011;2624;48.048;11.706;2023-03-01T02:13:15;16.60;;;8.20;;
5209;SDS011;2624;48.048;11.706;2023-03-01T02:18:18;25.60;;;7.80;;
5209;SDS011;2624;48.048;11.706;2023-03-01T02:23:23;12.43;;;5.23;;
5209;SDS011;2624;48.048;11.706;2023-03-01T02:28:27;15.30;;;7.00;;
5209;SDS011;2624;48.048;11.706;2023-03-01T02:33:31;11.77;;;6.07;;
5209;SDS011;2624;48.048;11.706;2023-03-01T02:38:36;13.20;;;6.07;;
5209;SDS011;2624;48.048;11.706;2023-03-01T02:43:39;15.03;;;6.70;;
5209;SDS011;2624;48.048;11.706;2023-03-01T02:48:42;9.00;;;4.80;;
5209;SDS011;2624;48.048;11.706;2023-03-01T02:53:47;8.20;;;5.93;;
5209;SDS011;2624;48.048;11.706;2023-03-01T02:58:57;13.17;;;5.80;;
5209;SDS011;2624;48.048;11.706;2023-03-01T03:04:00;14.67;;;6.00;;
5209;SDS011;2624;48.048;11.706;2023-03-01T03:09:02;13.03;;;7.20;;
5209;SDS011;2624;48.048;11.706;2023-03-01T03:14:06;18.90;;;7.90;;
5209;SDS011;2624;48.048;11.706;2023-03-01T03:19:12;11.80;;;5.93;;
5209;SDS011;2624;48.048;11.706;2023-03-01T03:24:14;9.57;;;6.37;;
5209;SDS011;2624;48.048;11.706;2023-03-01T03:29:18;16.80;;;8.87;;
5209;SDS011;2624;48.048;11.706;2023-03-01T03:34:20;15.37;;;6.90;;
5209;SDS011;2624;48.048;11.706;2023-03-01T03:39:22;11.37;;;6.87;;
5209;SDS011;2624;48.048;11.706;2023-03-01T03:44:25;17.03;;;7.43;;
5209;SDS011;2624;48.048;11.706;2023-03-01T03:49:27;10.90;;;5.93;;
5209;SDS011;2624;48.048;11.706;2023-03-01T03:54:29;14.20;;;7.40;;
5209;SDS011;2624;48.048;11.706;2023-03-01T03:59:32;16.73;;;7.50;;
5209;SDS011;2624;48.048;11.706;2023-03-01T04:04:33;11.57;;;6.17;;
5209;SDS011;2624;48.048;11.706;2023-03-01T04:09:35;18.90;;;8.70;;
5209;SDS011;2624;48.048;11.706;2023-03-01T04:14:38;15.07;;;7.97;;
5209;SDS011;2624;48.048;11.706;2023-03-01T04:19:40;26.37;;;9.30;;
5209;SDS011;2624;48.048;11.706;2023-03-01T04:24:43;13.93;;;7.10;;
5209;SDS011;2624;48.048;11.706;2023-03-01T04:29:47;10.80;;;6.07;;
5209;SDS011;2624;48.048;11.706;2023-03-01T04:34:48;10.90;;;7.00;;
5209;SDS011;2624;48.048;11.706;2023-03-01T04:39:50;18.10;;;8.90;;
5209;SDS011;2624;48.048;11.706;2023-03-01T04:44:53;19.20;;;6.03;;
5209;SDS011;2624;48.048;11.706;2023-03-01T04:49:55;16.63;;;8.20;;
5209;SDS011;2624;48.048;11.706;2023-03-01T04:54:57;12.20;;;6.27;;
5209;SDS011;2624;48.048;11.706;2023-03-01T05:00:00;15.93;;;8.10;;
5209;SDS011;2624;48.048;11.706;2023-03-01T05:05:20;16.70;;;7.70;;
5209;SDS011;2624;48.048;11.706;2023-03-01T05:10:26;21.30;;;9.20;;
5209;SDS011;2624;48.048;11.706;2023-03-01T05:15:34;17.70;;;8.70;;
5209;SDS011;2624;48.048;11.706;2023-03-01T05:20:37;9.67;;;4.87;;
5209;SDS011;2624;48.048;11.706;2023-03-01T05:25:39;17.20;;;7.07;;
5209;SDS011;2624;48.048;11.706;2023-03-01T05:30:42;17.07;;;8.40;;
5209;SDS011;2624;48.048;11.706;2023-03-01T05:35:44;14.70;;;7.00;;
5209;SDS011;2624;48.048;11.706;2023-03-01T05:40:48;10.33;;;5.07;;
5209;SDS011;2624;48.048;11.706;2023-03-01T05:45:51;15.97;;;7.50;;
5209;SDS011;2624;48.048;11.706;2023-03-01T05:50:53;13.93;;;7.63;;
5209;SDS011;2624;48.048;11.706;2023-03-01T05:55:55;17.93;;;8.80;;
5209;SDS011;2624;48.048;11.706;2023-03-01T06:00:58;8.27;;;5.47;;
5209;SDS011;2624;48.048;11.706;2023-03-01T06:05:59;13.87;;;7.40;;
5209;SDS011;2624;48.048;11.706;2023-03-01T06:11:02;15.67;;;7.53;;
5209;SDS011;2624;48.048;11.706;2023-03-01T06:16:06;22.00;;;8.27;;
5209;SDS011;2624;48.048;11.706;2023-03-01T06:21:08;19.20;;;6.57;;
5209;SDS011;2624;48.048;11.706;2023-03-01T06:26:10;18.67;;;7.20;;
5209;SDS011;2624;48.048;11.706;2023-03-01T06:31:13;19.80;;;8.47;;
5209;SDS011;2624;48.048;11.706;2023-03-01T06:36:15;24.30;;;11.40;;
5209;SDS011;2624;48.048;11.706;2023-03-01T06:41:18;11.13;;;6.30;;
5209;SDS011;2624;48.048;11.706;2023-03-01T06:46:21;21.53;;;10.10;;
5209;SDS011;2624;48.048;11.706;2023-03-01T06:51:23;10.80;;;4.00;;
5209;SDS011;2624;48.048;11.706;2023-03-01T06:56:25;17.00;;;8.33;;
5209;SDS011;2624;48.048;11.706;2023-03-01T07:01:28;26.10;;;11.97;;
5209;SDS011;2624;48.048;11.706;2023-03-01T07:06:30;15.10;;;8.70;;
5209;SDS011;2624;48.048;11.706;2023-03-01T07:11:31;18.70;;;8.93;;
5209;SDS011;2624;48.048;11.706;2023-03-01T07:16:35;25.40;;;9.67;;
5209;SDS011;2624;48.048;11.706;2023-03-01T07:21:37;20.40;;;9.37;;
5209;SDS011;2624;48.048;11.706;2023-03-01T07:26:39;25.07;;;8.40;;
5209;SDS011;2624;48.048;11.706;2023-03-01T07:31:42;16.73;;;8.73;;
5209;SDS011;2624;48.048;11.706;2023-03-01T07:36:44;20.70;;;8.00;;
5209;SDS011;2624;48.048;11.706;2023-03-01T07:41:46;16.97;;;6.60;;
5209;SDS011;2624;48.048;11.706;2023-03-01T07:46:49;11.17;;;6.23;;
5209;SDS011;2624;48.048;11.706;2023-03-01T07:51:52;11.87;;;4.77;;
5209;SDS011;2624;48.048;11.706;2023-03-01T07:56:54;20.03;;;7.80;;
5209;SDS011;2624;48.048;11.706;2023-03-01T08:01:59;30.30;;;10.43;;
5209;SDS011;2624;48.048;11.706;2023-03-01T08:07:00;16.07;;;8.00;;
5209;SDS011;2624;48.048;11.706;2023-03-01T08:12:02;15.40;;;7.20;;
5209;SDS011;2624;48.048;11.706;2023-03-01T08:17:06;23.07;;;10.00;;
5209;SDS011;2624;48.048;11.706;2023-03-01T08:22:08;21.47;;;11.00;;
5209;SDS011;2624;48.048;11.706;2023-03-01T08:27:10;10.13;;;5.83;;
5209;SDS011;2624;48.048;11.706;2023-03-01T08:32:13;9.83;;;5.50;;
5209;SDS011;2624;48.048;11.706;2023-03-01T08:37:15;25.37;;;9.40;;
5209;SDS011;2624;48.048;11.706;2023-03-01T08:42:16;28.93;;;10.67;;
5209;SDS011;2624;48.048;11.706;2023-03-01T08:47:20;15.27;;;8.30;;
5209;SDS011;2624;48.048;11.706;2023-03-01T08:52:21;28.10;;;13.27;;
5209;SDS011;2624;48.048;11.706;2023-03-01T08:57:24;15.13;;;7.90;;
5209;SDS011;2624;48.048;11.706;2023-03-01T09:02:27;23.27;;;9.60;;
5209;SDS011;2624;48.048;11.706;2023-03-01T09:07:29;19.47;;;9.30;;
5209;SDS011;2624;48.048;11.706;2023-03-01T09:12:31;15.07;;;8.13;;
5209;SDS011;2624;48.048;11.706;2023-03-01T09:17:34;15.43;;;6.67;;
5209;SDS011;2624;48.048;11.706;2023-03-01T09:22:35;25.47;;;12.17;;
5209;SDS011;2624;48.048;11.706;2023-03-01T09:27:37;30.67;;;12.23;;
5209;SDS011;2624;48.048;11.706;2023-03-01T09:32:40;18.97;;;8.83;;
5209;SDS011;2624;48.048;11.706;2023-03-01T09:37:42;16.70;;;8.03;;
5209;SDS011;2624;48.048;11.706;2023-03-01T09:42:49;21.17;;;9.20;;
5209;SDS011;2624;48.048;11.706;2023-03-01T09:47:57;27.27;;;11.77;;
5209;SDS011;2624;48.048;11.706;2023-03-01T09:53:00;22.00;;;8.77;;
5209;SDS011;2624;48.048;11.706;2023-03-01T09:58:06;11.23;;;5.07;;
5209;SDS011;2624;48.048;11.706;2023-03-01T10:03:31;23.83;;;9.30;;
5209;SDS011;2624;48.048;11.706;2023-03-01T10:08:40;15.80;;;8.57;;
5209;SDS011;2624;48.048;11.706;2023-03-01T10:13:45;17.37;;;7.90;;
5209;SDS011;2624;48.048;11.706;2023-03-01T10:18:55;20.00;;;9.60;;
5209;SDS011;2624;48.048;11.706;2023-03-01T10:24:05;21.40;;;8.60;;
5209;SDS011;2624;48.048;11.706;2023-03-01T10:29:12;18.80;;;9.83;;
5209;SDS011;2624;48.048;11.706;2023-03-01T10:34:16;12.63;;;7.00;;
5209;SDS011;2624;48.048;11.706;2023-03-01T10:39:21;14.67;;;7.73;;
5209;SDS011;2624;48.048;11.706;2023-03-01T10:44:38;27.30;;;12.17;;
5209;SDS011;2624;48.048;11.706;2023-03-01T10:49:56;20.43;;;8.83;;
5209;SDS011;2624;48.048;11.706;2023-03-01T10:55:01;30.63;;;9.50;;
5209;SDS011;2624;48.048;11.706;2023-03-01T11:00:14;22.30;;;11.07;;
5209;SDS011;2624;48.048;11.706;2023-03-01T11:05:24;18.37;;;9.77;;
5209;SDS011;2624;48.048;11.706;2023-03-01T11:10:28;27.00;;;11.07;;
5209;SDS011;2624;48.048;11.706;2023-03-01T11:15:31;26.67;;;11.90;;
5209;SDS011;2624;48.048;11.706;2023-03-01T11:20:35;18.83;;;9.07;;
5209;SDS011;2624;48.048;11.706;2023-03-01T11:25:39;13.20;;;6.50;;
5209;SDS011;2624;48.048;11.706;2023-03-01T11:30:45;19.80;;;9.97;;
5209;SDS011;2624;48.048;11.706;2023-03-01T11:35:55;26.87;;;11.80;;
5209;SDS011;2624;48.048;11.706;2023-03-01T11:41:02;17.00;;;10.07;;
5209;SDS011;2624;48.048;11.706;2023-03-01T11:46:16;19.47;;;8.20;;
5209;SDS011;2624;48.048;11.706;2023-03-01T11:51:51;26.67;;;10.80;;
5209;SDS011;2624;48.048;11.706;2023-03-01T11:57:01;25.53;;;10.30;;
5209;SDS011;2624;48.048;11.706;2023-03-01T12:02:32;19.13;;;8.90;;
5209;SDS011;2624;48.048;11.706;2023-03-01T12:07:58;28.27;;;14.37;;
5209;SDS011;2624;48.048;11.706;2023-03-01T12:13:12;32.27;;;13.67;;
5209;SDS011;2624;48.048;11.706;2023-03-01T12:18:29;40.33;;;20.83;;
5209;SDS011;2624;48.048;11.706;2023-03-01T12:23:57;34.53;;;14.80;;
5209;SDS011;2624;48.048;11.706;2023-03-01T12:29:34;29.20;;;15.93;;
5209;SDS011;2624;48.048;11.706;2023-03-01T12:40:41;29.00;;;12.40;;
5209;SDS011;2624;48.048;11.706;2023-03-01T12:46:05;17.50;;;8.33;;
5209;SDS011;2624;48.048;11.706;2023-03-01T12:51:17;38.57;;;15.63;;
5209;SDS011;2624;48.048;11.706;2023-03-01T12:56:24;34.97;;;18.73;;
5209;SDS011;2624;48.048;11.706;2023-03-01T13:01:33;31.87;;;15.30;;
5209;SDS011;2624;48.048;11.706;2023-03-01T13:06:44;29.87;;;14.37;;
5209;SDS011;2624;48.048;11.706;2023-03-01T13:11:53;38.33;;;18.00;;
5209;SDS011;2624;48.048;11.706;2023-03-01T13:16:55;22.40;;;9.90;;
5209;SDS011;2624;48.048;11.706;2023-03-01T13:21:57;26.00;;;14.03;;
5209;SDS011;2624;48.048;11.706;2023-03-01T13:27:20;24.30;;;11.37;;
5209;SDS011;2624;48.048;11.706;2023-03-01T13:32:29;42.03;;;18.90;;
5209;SDS011;2624;48.048;11.706;2023-03-01T13:37:34;30.50;;;14.20;;
5209;SDS011;2624;48.048;11.706;2023-03-01T13:42:39;34.67;;;17.27;;
5209;SDS011;2624;48.048;11.706;2023-03-01T13:47:46;20.60;;;9.70;;
5209;SDS011;2624;48.048;11.706;2023-03-01T13:52:52;18.20;;;7.47;;
5209;SDS011;2624;48.048;11.706;2023-03-01T13:57:59;24.37;;;8.77;;
5209;SDS011;2624;48.048;11.706;2023-03-01T14:03:05;18.03;;;9.07;;
5209;SDS011;2624;48.048;11.706;2023-03-01T14:08:18;22.33;;;11.07;;
5209;SDS011;2624;48.048;11.706;2023-03-01T14:13:38;31.37;;;12.30;;
5209;SDS011;2624;48.048;11.706;2023-03-01T14:18:49;27.60;;;13.10;;
5209;SDS011;2624;48.048;11.706;2023-03-01T14:23:58;24.13;;;11.50;;
5209;SDS011;2624;48.048;11.706;2023-03-01T14:29:01;31.70;;;12.40;;
5209;SDS011;2624;48.048;11.706;2023-03-01T14:34:03;36.47;;;15.00;;
5209;SDS011;2624;48.048;11.706;2023-03-01T14:39:15;28.07;;;10.77;;
5209;SDS011;2624;48.048;11.706;2023-03-01T14:44:21;29.37;;;13.87;;
5209;SDS011;2624;48.048;11.706;2023-03-01T14:49:25;31.23;;;15.47;;
5209;SDS011;2624;48.048;11.706;2023-03-01T14:54:32;29.67;;;15.33;;
5209;SDS011;2624;48.048;11.706;2023-03-01T14:59:40;25.53;;;10.43;;
5209;SDS011;2624;48.048;11.706;2023-03-01T15:04:43;36.47;;;17.70;;
5209;SDS011;2624;48.048;11.706;2023-03-01T15:09:47;34.57;;;14.63;;
5209;SDS011;2624;48.048;11.706;2023-03-01T15:14:50;31.70;;;12.27;;
5209;SDS011;2624;48.048;11.706;2023-03-01T15:19:53;23.73;;;11.10;;
5209;SDS011;2624;48.048;11.706;2023-03-01T15:24:55;21.60;;;9.80;;
5209;SDS011;2624;48.048;11.706;2023-03-01T15:29:59;31.10;;;11.67;;
5209;SDS011;2624;48.048;11.706;2023-03-01T15:35:32;23.37;;;11.40;;
5209;SDS011;2624;48.048;11.706;2023-03-01T15:40:48;20.70;;;10.20;;
5209;SDS011;2624;48.048;11.706;2023-03-01T15:45:56;30.00;;;16.47;;
5209;SDS011;2624;48.048;11.706;2023-03-01T15:50:58;32.17;;;15.13;;
5209;SDS011;2624;48.048;11.706;2023-03-01T15:56:01;29.97;;;14.30;;
5209;SDS011;2624;48.048;11.706;2023-03-01T16:01:07;27.67;;;12.70;;
5209;SDS011;2624;48.048;11.706;2023-03-01T16:06:12;33.63;;;13.17;;
5209;SDS011;2624;48.048;11.706;2023-03-01T16:11:16;34.13;;;14.70;;
5209;SDS011;2624;48.048;11.706;2023-03-01T16:16:20;26.37;;;13.97;;
5209;SDS011;2624;48.048;11.706;2023-03-01T16:21:22;35.20;;;15.40;;
5209;SDS011;2624;48.048;11.706;2023-03-01T16:26:25;26.60;;;14.60;;
5209;SDS011;2624;48.048;11.706;2023-03-01T16:31:28;28.20;;;13.50;;
5209;SDS011;2624;48.048;11.706;2023-03-01T16:36:30;31.80;;;14.00;;
5209;SDS011;2624;48.048;11.706;2023-03-01T16:41:32;35.20;;;15.70;;
5209;SDS011;2624;48.048;11.706;2023-03-01T16:46:35;32.17;;;13.40;;
5209;SDS011;2624;48.048;11.706;2023-03-01T16:51:37;29.00;;;12.37;;
5209;SDS011;2624;48.048;11.706;2023-03-01T16:56:39;44.23;;;12.57;;
5209;SDS011;2624;48.048;11.706;2023-03-01T17:01:42;26.87;;;13.40;;
5209;SDS011;2624;48.048;11.706;2023-03-01T17:06:44;30.30;;;13.27;;
5209;SDS011;2624;48.048;11.706;2023-03-01T17:11:46;34.03;;;13.77;;
5209;SDS011;2624;48.048;11.706;2023-03-01T17:16:49;23.03;;;11.40;;
5209;SDS011;2624;48.048;11.706;2023-03-01T17:21:52;23.87;;;12.27;;
5209;SDS011;2624;48.048;11.706;2023-03-01T17:26:54;30.30;;;14.77;;
5209;SDS011;2624;48.048;11.706;2023-03-01T17:31:58;24.67;;;10.30;;
5209;SDS011;2624;48.048;11.706;2023-03-01T17:37:00;22.40;;;11.53;;
5209;SDS011;2624;48.048;11.706;2023-03-01T17:42:02;34.43;;;17.30;;
5209;SDS011;2624;48.048;11.706;2023-03-01T17:47:06;40.60;;;18.30;;
5209;SDS011;2624;48.048;11.706;2023-03-01T17:52:08;27.10;;;13.00;;
5209;SDS011;2624;48.048;11.706;2023-03-01T17:57:10;16.57;;;8.50;;
5209;SDS011;2624;48.048;11.706;2023-03-01T18:02:13;32.13;;;12.90;;
5209;SDS011;2624;48.048;11.706;2023-03-01T18:07:15;20.20;;;10.60;;
5209;SDS011;2624;48.048;11.706;2023-03-01T18:12:17;23.53;;;10.10;;
5209;SDS011;2624;48.048;11.706;2023-03-01T18:17:20;27.73;;;13.40;;
5209;SDS011;2624;48.048;11.706;2023-03-01T18:22:23;23.67;;;10.20;;
5209;SDS011;2624;48.048;11.706;2023-03-01T18:27:25;24.03;;;10.33;;
5209;SDS011;2624;48.048;11.706;2023-03-01T18:32:28;27.70;;;12.57;;
5209;SDS011;2624;48.048;11.706;2023-03-01T18:37:29;24.67;;;11.70;;
5209;SDS011;2624;48.048;11.706;2023-03-01T18:42:31;31.37;;;14.50;;
5209;SDS011;2624;48.048;11.706;2023-03-01T18:47:34;41.23;;;15.60;;
5209;SDS011;2624;48.048;11.706;2023-03-01T18:52:36;30.27;;;14.07;;
5209;SDS011;2624;48.048;11.706;2023-03-01T18:57:38;28.40;;;12.23;;
5209;SDS011;2624;48.048;11.706;2023-03-01T19:02:41;31.03;;;12.80;;
5209;SDS011;2624;48.048;11.706;2023-03-01T19:07:43;32.57;;;14.80;;
5209;SDS011;2624;48.048;11.706;2023-03-01T19:12:44;34.40;;;13.67;;
5209;SDS011;2624;48.048;11.706;2023-03-01T19:17:48;20.97;;;10.67;;
5209;SDS011;2624;48.048;11.706;2023-03-01T19:22:49;20.93;;;8.43;;
5209;SDS011;2624;48.048;11.706;2023-03-01T19:27:51;26.20;;;11.60;;
5209;SDS011;2624;48.048;11.706;2023-03-01T19:32:54;40.60;;;14.07;;
5209;SDS011;2624;48.048;11.706;2023-03-01T19:37:56;28.83;;;11.30;;
5209;SDS011;2624;48.048;11.706;2023-03-01T19:42:58;32.47;;;14.20;;
5209;SDS011;2624;48.048;11.706;2023-03-01T19:48:01;29.13;;;11.70;;
5209;SDS011;2624;48.048;11.706;2023-03-01T19:53:02;30.67;;;13.80;;
5209;SDS011;2624;48.048;11.706;2023-03-01T19:58:05;22.77;;;10.97;;
5209;SDS011;2624;48.048;11.706;2023-03-01T20:03:08;36.03;;;17.40;;
5209;SDS011;2624;48.048;11.706;2023-03-01T20:08:10;31.73;;;13.00;;
5209;SDS011;2624;48.048;11.706;2023-03-01T20:13:12;41.30;;;14.30;;
5209;SDS011;2624;48.048;11.706;2023-03-01T20:18:15;40.97;;;12.13;;
5209;SDS011;2624;48.048;11.706;2023-03-01T20:23:17;22.90;;;9.87;;
5209;SDS011;2624;48.048;11.706;2023-03-01T20:28:19;26.50;;;9.77;;
5209;SDS011;2624;48.048;11.706;2023-03-01T20:33:22;18.90;;;8.87;;
5209;SDS011;2624;48.048;11.706;2023-03-01T20:38:23;27.90;;;11.90;;
5209;SDS011;2624;48.048;11.706;2023-03-01T20:43:26;26.47;;;9.70;;
5209;SDS011;2624;48.048;11.706;2023-03-01T20:48:29;16.57;;;8.20;;
5209;SDS011;2624;48.048;11.706;2023-03-01T20:53:31;17.73;;;9.23;;
5209;SDS011;2624;48.048;11.706;2023-03-01T20:58:33;22.73;;;10.23;;
5209;SDS011;2624;48.048;11.706;2023-03-01T21:03:36;20.30;;;8.20;;
5209;SDS011;2624;48.048;11.706;2023-03-01T21:08:38;19.10;;;8.10;;
5209;SDS011;2624;48.048;11.706;2023-03-01T21:13:40;19.37;;;7.37;;
5209;SDS011;2624;48.048;11.706;2023-03-01T21:18:44;15.70;;;7.30;;
5209;SDS011;2624;48.048;11.706;2023-03-01T21:23:46;19.87;;;7.90;;
5209;SDS011;2624;48.048;11.706;2023-03-01T21:28:49;17.00;;;8.93;;
5209;SDS011;2624;48.048;11.706;2023-03-01T21:33:56;22.17;;;9.53;;
5209;SDS011;2624;48.048;11.706;2023-03-01T21:38:59;19.57;;;7.40;;
5209;SDS011;2624;48.048;11.706;2023-03-01T21:44:02;18.73;;;9.10;;
5209;SDS011;2624;48.048;11.706;2023-03-01T21:49:07;16.20;;;7.57;;
5209;SDS011;2624;48.048;11.706;2023-03-01T21:54:10;17.13;;;8.47;;
5209;SDS011;2624;48.048;11.706;2023-03-01T21:59:14;21.47;;;8.30;;
5209;SDS011;2624;48.048;11.706;2023-03-01T22:04:18;13.37;;;7.17;;
5209;SDS011;2624;48.048;11.706;2023-03-01T22:09:20;13.17;;;6.70;;
5209;SDS011;2624;48.048;11.706;2023-03-01T22:14:23;14.73;;;6.47;;
5209;SDS011;2624;48.048;11.706;2023-03-01T22:19:26;20.40;;;8.83;;
5209;SDS011;2624;48.048;11.706;2023-03-01T22:24:29;15.80;;;6.87;;
5209;SDS011;2624;48.048;11.706;2023-03-01T22:29:31;14.13;;;7.60;;
5209;SDS011;2624;48.048;11.706;2023-03-01T22:34:34;9.57;;;5.07;;
5209;SDS011;2624;48.048;11.706;2023-03-01T22:39:36;21.47;;;8.40;;
5209;SDS011;2624;48.048;11.706;2023-03-01T22:44:37;17.57;;;5.53;;
5209;SDS011;2624;48.048;11.706;2023-03-01T22:49:42;19.17;;;8.53;;
5209;SDS011;2624;48.048;11.706;2023-03-01T22:54:43;15.97;;;8.10;;
5209;SDS011;2624;48.048;11.706;2023-03-01T22:59:45;18.37;;;8.60;;
5209;SDS011;2624;48.048;11.706;2023-03-01T23:04:48;19.43;;;7.50;;
5209;SDS011;2624;48.048;11.706;2023-03-01T23:09:53;20.10;;;8.70;;
5209;SDS011;2624;48.048;11.706;2023-03-01T23:14:54;12.80;;;6.07;;
5209;SDS011;2624;48.048;11.706;2023-03-01T23:19:57;11.80;;;5.60;;
5209;SDS011;2624;48.048;11.706;2023-03-01T23:24:59;9.10;;;4.87;;
5209;SDS011;2624;48.048;11.706;2023-03-01T23:30:01;10.17;;;6.07;;
5209;SDS011;2624;48.048;11.706;2023-03-01T23:35:05;10.50;;;5.77;;
5209;SDS011;2624;48.048;11.706;2023-03-01T23:40:09;7.30;;;4.27;;
5209;SDS011;2624;48.048;11.706;2023-03-01T23:45:11;9.00;;;4.07;;
5209;SDS011;2624;48.048;11.706;2023-03-01T23:50:15;13.67;;;6.40;;
5209;SDS011;2624;48.048;11.706;2023-03-01T23:55:17;13.30;;;6.67;;
